Necaise, Mississippi
Current Conditions -  °F | °C
As of 3:53 AM on Sunday 21 Dec 2014 (Local Time) from KGPT Reporting Station
Overcast Overcast  
Wind Chill: 50°   Ceiling: 1700
Heat Index: 50°   Visibility: 10mi
Dew Point: 46°   Wind: 6mph
Humidity: 86%   Direction: 20°NNE
Pressure: 30.11"   Gusts: NA
Location:  30.7239°N, 89.1669°W
Report Text: KGPT 210953Z AUTO 02005KT 10SM OVC017 10/08 A3011 RMK AO2 SLP197 T01000078
Loading
Personal Weather Stations






























Interactive Weather Map New forecast layout! Learn more

10-Day Weather Forecast

Advertisements
Track Severe Weather on mobile